Time;durP1;ratioP1;P1;durP2;ratioP2;P2;SDS_P1;SDS_P2;PMS_P1;PMS_P2;Temp;Humidity;BMP_temperature;BMP_pressure;BME280_temperature;BME280_humidity;BME280_pressure;Samples;Min_cycle;Max_cycle;Signal;HPM_P1;HPM_P2
2023/04/24 00:01:52;;;;;;;6.07;2.70;;;10.10;97.10;;;;;;4926289;28;20072;-83
2023/04/24 00:04:19;;;;;;;4.07;2.55;;;10.20;97.10;;;;;;4957097;28;20480;-83
2023/04/24 00:06:49;;;;;;;4.10;2.63;;;10.20;97.10;;;;;;4978354;28;20051;-83
2023/04/24 00:09:16;;;;;;;4.47;2.55;;;10.20;97.10;;;;;;4929593;28;20067;-83
2023/04/24 00:11:43;;;;;;;4.00;2.47;;;10.20;97.00;;;;;;4944818;28;20510;-83
2023/04/24 00:14:10;;;;;;;4.22;2.90;;;10.30;97.30;;;;;;4960482;28;20059;-83
2023/04/24 00:16:37;;;;;;;5.35;3.55;;;10.30;97.00;;;;;;4986496;28;20046;-83
2023/04/24 00:19:05;;;;;;;5.78;3.65;;;10.30;97.00;;;;;;4952528;28;20545;-83
2023/04/24 00:21:32;;;;;;;4.70;3.35;;;10.30;97.00;;;;;;4976407;28;20053;-84
2023/04/24 00:23:59;;;;;;;4.80;2.83;;;10.30;97.00;;;;;;4944741;28;20047;-83
2023/04/24 00:26:27;;;;;;;4.75;2.75;;;10.30;97.00;;;;;;4971585;28;20097;-83
2023/04/24 00:28:55;;;;;;;4.68;3.25;;;10.30;97.00;;;;;;4969917;28;20055;-83
2023/04/24 00:31:24;;;;;;;4.30;2.80;;;10.30;97.00;;;;;;4925681;29;20055;-83
2023/04/24 00:33:51;;;;;;;4.65;2.72;;;10.30;97.00;;;;;;4975560;28;20134;-83
2023/04/24 00:36:20;;;;;;;4.15;1.98;;;10.30;97.10;;;;;;4945926;28;20047;-83
2023/04/24 00:38:47;;;;;;;2.80;1.25;;;10.30;97.10;;;;;;4960559;28;20443;-83
2023/04/24 00:41:14;;;;;;;2.72;1.67;;;10.20;97.00;;;;;;4940888;29;20047;-84
2023/04/24 00:43:41;;;;;;;2.53;1.33;;;10.30;97.10;;;;;;4956718;28;20057;-84
2023/04/24 00:46:09;;;;;;;2.03;1.00;;;10.30;97.00;;;;;;4962990;28;20049;-84
2023/04/24 00:48:39;;;;;;;1.92;0.93;;;10.20;97.00;;;;;;4941157;29;20128;-83
2023/04/24 00:51:07;;;;;;;1.73;0.93;;;10.20;97.00;;;;;;4956991;28;20164;-83
2023/04/24 00:53:34;;;;;;;2.22;1.00;;;10.20;97.00;;;;;;4959787;28;20061;-84
2023/04/24 00:56:02;;;;;;;2.13;1.30;;;10.20;97.10;;;;;;4965533;28;20056;-83
2023/04/24 00:58:31;;;;;;;2.13;1.35;;;10.10;97.40;;;;;;4987507;28;20031;-83
2023/04/24 01:01:00;;;;;;;2.90;1.60;;;10.00;97.50;;;;;;4929696;28;20047;-84
2023/04/24 01:03:31;;;;;;;3.22;1.15;;;9.90;97.60;;;;;;4944378;28;20093;-84
2023/04/24 01:05:59;;;;;;;2.38;1.15;;;9.90;97.70;;;;;;4959492;28;20047;-84
2023/04/24 01:08:28;;;;;;;2.28;1.40;;;9.90;97.70;;;;;;4975424;28;20062;-83
2023/04/24 01:10:57;;;;;;;3.08;1.70;;;9.90;97.70;;;;;;4959974;28;20050;-83
2023/04/24 01:13:24;;;;;;;3.40;1.35;;;10.00;97.70;;;;;;4975767;28;20043;-83
2023/04/24 01:15:52;;;;;;;2.95;1.30;;;10.00;98.00;;;;;;4962003;28;20046;-83
2023/04/24 01:18:21;;;;;;;3.65;2.38;;;10.00;97.70;;;;;;4942702;28;20514;-84
2023/04/24 01:20:52;;;;;;;4.25;2.83;;;10.00;97.70;;;;;;4935702;28;20055;-83
2023/04/24 01:23:19;;;;;;;6.05;3.75;;;10.00;97.70;;;;;;4975417;28;20081;-84
2023/04/24 01:25:48;;;;;;;7.95;4.35;;;10.00;97.70;;;;;;4975288;28;20043;-84
2023/04/24 01:28:15;;;;;;;10.50;6.30;;;10.10;97.70;;;;;;4962939;28;20129;-83
2023/04/24 01:30:43;;;;;;;8.90;5.32;;;10.00;97.70;;;;;;4955795;29;20047;-83
2023/04/24 01:33:10;;;;;;;10.57;6.80;;;10.00;97.70;;;;;;4942205;28;20058;-84
2023/04/24 01:35:41;;;;;;;15.98;9.32;;;10.00;97.70;;;;;;4940616;29;20142;-84
2023/04/24 01:38:08;;;;;;;14.50;8.02;;;10.00;97.70;;;;;;4967849;28;20047;-83
2023/04/24 01:40:35;;;;;;;15.07;8.50;;;10.00;97.70;;;;;;4958993;28;20133;-83
2023/04/24 01:43:02;;;;;;;13.77;8.35;;;10.00;97.70;;;;;;4943317;28;20054;-83
2023/04/24 01:45:30;;;;;;;10.00;6.97;;;10.00;97.80;;;;;;4974800;28;20043;-84
2023/04/24 01:48:00;;;;;;;12.60;8.15;;;10.00;97.70;;;;;;4966848;28;20061;-84
2023/04/24 01:50:28;;;;;;;12.88;7.70;;;10.10;97.70;;;;;;4971561;28;20193;-83
2023/04/24 01:52:55;;;;;;;14.15;9.10;;;10.10;97.70;;;;;;4953714;28;20047;-84
2023/04/24 01:55:24;;;;;;;14.05;8.60;;;10.10;97.80;;;;;;4950545;28;20094;-83
2023/04/24 01:57:54;;;;;;;14.55;8.75;;;10.00;97.80;;;;;;4945631;28;20043;-84
2023/04/24 02:00:22;;;;;;;12.65;7.07;;;10.00;98.00;;;;;;4943442;28;20047;-83
2023/04/24 02:02:51;;;;;;;10.95;7.03;;;9.90;98.00;;;;;;4956008;28;20507;-83
2023/04/24 02:05:19;;;;;;;9.18;5.45;;;9.90;98.00;;;;;;4939337;29;20082;-84
2023/04/24 02:07:46;;;;;;;10.05;7.45;;;10.00;98.00;;;;;;4963678;28;20053;-83
2023/04/24 02:10:16;;;;;;;8.52;5.35;;;10.00;98.00;;;;;;4973867;28;20113;-84
2023/04/24 02:12:43;;;;;;;11.18;6.88;;;10.00;98.10;;;;;;4957987;28;20055;-83
2023/04/24 02:15:12;;;;;;;11.98;7.88;;;9.90;98.10;;;;;;4974030;28;20051;-83
2023/04/24 02:17:43;;;;;;;10.30;7.00;;;9.90;98.20;;;;;;4974602;28;20550;-83
2023/04/24 02:20:10;;;;;;;14.00;9.05;;;9.90;98.20;;;;;;4958023;28;20053;-83
2023/04/24 02:22:38;;;;;;;12.38;8.30;;;10.00;98.20;;;;;;4946395;28;20491;-83
2023/04/24 02:25:05;;;;;;;11.45;7.88;;;9.90;98.20;;;;;;4939039;28;20043;-83
2023/04/24 02:27:32;;;;;;;11.10;7.25;;;9.90;98.20;;;;;;4958356;28;20057;-83
2023/04/24 02:30:00;;;;;;;14.15;8.73;;;9.90;98.20;;;;;;4972800;28;20133;-83
2023/04/24 02:32:30;;;;;;;13.10;9.25;;;9.90;98.20;;;;;;4974289;28;20042;-83
2023/04/24 02:34:57;;;;;;;14.20;9.02;;;9.90;98.20;;;;;;4926723;28;20043;-83
2023/04/24 02:37:24;;;;;;;19.83;11.82;;;9.90;98.20;;;;;;4941916;28;20050;-82
2023/04/24 02:39:51;;;;;;;17.95;12.60;;;9.90;98.30;;;;;;4957748;28;20086;-83
2023/04/24 02:42:18;;;;;;;17.13;10.90;;;9.80;98.30;;;;;;4942864;28;20051;-83
2023/04/24 02:44:45;;;;;;;15.55;10.60;;;9.80;98.40;;;;;;4941772;28;20097;-83
2023/04/24 02:47:12;;;;;;;14.15;10.18;;;9.80;98.40;;;;;;4957665;28;20070;-83
2023/04/24 02:49:43;;;;;;;16.52;10.13;;;9.90;98.40;;;;;;4954873;28;20047;-83
2023/04/24 02:52:11;;;;;;;17.88;11.80;;;9.90;98.40;;;;;;4970092;28;20093;-82
2023/04/24 02:54:40;;;;;;;14.40;9.98;;;9.80;98.40;;;;;;4954885;28;20054;-83
2023/04/24 02:57:07;;;;;;;14.52;9.60;;;9.80;98.40;;;;;;4955265;28;20043;-83
2023/04/24 02:59:34;;;;;;;15.77;10.18;;;9.80;98.40;;;;;;4941896;28;20098;-83
2023/04/24 03:02:01;;;;;;;16.77;11.40;;;9.80;98.50;;;;;;4941750;28;20047;-83
2023/04/24 03:04:28;;;;;;;14.57;9.38;;;9.80;98.50;;;;;;4973199;28;20399;-83
2023/04/24 03:06:56;;;;;;;14.00;9.05;;;9.80;98.50;;;;;;4973445;28;20106;-83
2023/04/24 03:09:23;;;;;;;15.82;9.63;;;9.80;98.50;;;;;;4957200;28;20069;-83
2023/04/24 03:11:50;;;;;;;14.05;9.65;;;9.80;98.50;;;;;;4973243;28;20051;-83
2023/04/24 03:14:17;;;;;;;16.50;10.23;;;9.90;98.50;;;;;;4957523;28;20055;-83
2023/04/24 03:16:44;;;;;;;14.55;9.52;;;9.80;98.50;;;;;;4961191;28;20046;-83
2023/04/24 03:19:12;;;;;;;14.60;8.63;;;9.80;98.60;;;;;;4957545;28;20047;-83
2023/04/24 03:21:58;;;;;;;13.00;8.95;;;9.80;98.60;;;;;;4946352;28;20977;-83
2023/04/24 03:24:27;;;;;;;14.20;8.95;;;9.80;98.60;;;;;;4940450;28;20122;-83
2023/04/24 03:26:56;;;;;;;11.38;7.00;;;9.90;98.60;;;;;;4957228;28;20049;-83
2023/04/24 03:29:47;;;;;;;10.57;6.82;;;9.90;98.60;;;;;;4960114;28;20054;-83
2023/04/24 03:32:15;;;;;;;12.40;7.50;;;9.90;98.50;;;;;;4957026;28;20078;-83
2023/04/24 03:34:43;;;;;;;11.95;8.02;;;9.90;98.50;;;;;;4941196;28;20047;-82
2023/04/24 03:37:16;;;;;;;14.25;8.93;;;9.90;98.60;;;;;;4957406;28;20093;-83
2023/04/24 03:39:55;;;;;;;16.05;10.82;;;9.80;98.60;;;;;;4966220;28;20102;-84
2023/04/24 03:42:24;;;;;;;15.30;9.57;;;9.80;98.70;;;;;;4957611;28;20054;-85
2023/04/24 03:44:54;;;;;;;14.40;10.30;;;9.70;98.70;;;;;;4942169;28;20047;-83
2023/04/24 03:47:26;;;;;;;15.83;11.93;;;9.70;98.70;;;;;;4927153;28;20054;-83
2023/04/24 03:50:01;;;;;;;17.27;11.07;;;9.70;98.80;;;;;;4957829;28;20406;-83
2023/04/24 03:52:30;;;;;;;16.75;10.70;;;9.70;98.80;;;;;;4972663;28;20050;-82
2023/04/24 03:55:00;;;;;;;16.25;11.20;;;9.70;98.80;;;;;;4940947;28;20578;-83
2023/04/24 03:57:30;;;;;;;18.00;10.93;;;9.70;98.80;;;;;;4941850;28;20054;-83
2023/04/24 04:00:15;;;;;;;18.27;11.93;;;9.70;98.80;;;;;;4954169;28;20490;-83
2023/04/24 04:02:49;;;;;;;21.30;13.10;;;9.70;98.80;;;;;;4944124;28;20097;-83
2023/04/24 04:05:17;;;;;;;21.58;13.05;;;9.70;98.80;;;;;;4972595;28;20071;-82
2023/04/24 04:07:44;;;;;;;19.60;12.85;;;9.60;98.80;;;;;;4953409;28;20090;-82
2023/04/24 04:10:11;;;;;;;24.42;14.55;;;9.60;98.80;;;;;;4916401;28;20070;-83
2023/04/24 04:12:41;;;;;;;25.10;15.25;;;9.60;98.80;;;;;;4957165;28;20486;-83
2023/04/24 04:15:08;;;;;;;23.08;15.20;;;9.60;98.80;;;;;;4956717;28;20046;-82
2023/04/24 04:17:37;;;;;;;21.33;15.00;;;9.60;98.90;;;;;;4972683;28;20047;-82
2023/04/24 04:20:09;;;;;;;23.60;14.10;;;9.50;98.80;;;;;;4972839;28;20039;-82
2023/04/24 04:22:39;;;;;;;24.77;15.75;;;9.50;98.90;;;;;;4954069;28;20555;-82
2023/04/24 04:25:19;;;;;;;24.60;16.63;;;9.50;98.90;;;;;;4956085;28;20049;-82
2023/04/24 04:27:48;;;;;;;21.27;14.23;;;9.50;98.90;;;;;;4956573;28;20146;-82
2023/04/24 04:30:15;;;;;;;29.23;16.85;;;9.40;98.90;;;;;;4956894;28;20069;-82
2023/04/24 04:32:56;;;;;;;23.42;15.25;;;9.40;98.90;;;;;;4930208;28;20175;-82
2023/04/24 04:35:24;;;;;;;24.30;14.57;;;9.40;98.90;;;;;;4937872;28;20055;-82
2023/04/24 04:37:52;;;;;;;21.90;14.52;;;9.40;98.90;;;;;;4920747;29;20046;-82
2023/04/24 04:40:49;;;;;;;19.95;12.88;;;9.40;98.90;;;;;;4887956;29;20060;-83
2023/04/24 04:43:20;;;;;;;21.02;14.05;;;9.30;98.90;;;;;;4917303;29;20044;-83
2023/04/24 04:45:52;;;;;;;19.98;13.10;;;9.30;98.90;;;;;;4938071;29;20067;-84
2023/04/24 04:48:43;;;;;;;18.15;11.68;;;9.40;98.90;;;;;;4923587;29;20560;-83
2023/04/24 04:51:10;;;;;;;16.25;10.73;;;9.40;98.90;;;;;;4920410;29;20087;-84
2023/04/24 04:53:37;;;;;;;13.82;9.23;;;9.40;98.90;;;;;;4919931;29;20456;-82
2023/04/24 04:56:05;;;;;;;14.07;9.35;;;9.40;98.90;;;;;;4920496;29;20070;-82
2023/04/24 04:58:39;;;;;;;16.15;10.27;;;9.50;98.90;;;;;;4918727;29;20099;-82
2023/04/24 05:01:10;;;;;;;18.98;12.43;;;9.40;98.80;;;;;;4924055;29;20047;-82
2023/04/24 05:03:41;;;;;;;18.73;12.10;;;9.40;98.90;;;;;;4938770;29;20047;-83
2023/04/24 05:06:12;;;;;;;17.55;11.32;;;9.40;98.90;;;;;;4936370;29;20106;-82
2023/04/24 05:08:41;;;;;;;18.20;12.90;;;9.40;98.90;;;;;;4920253;28;20050;-82
2023/04/24 05:11:14;;;;;;;21.67;13.80;;;9.30;98.90;;;;;;4945482;28;20541;-83
2023/04/24 05:13:42;;;;;;;15.80;10.77;;;9.30;99.00;;;;;;4959522;28;20081;-82
2023/04/24 05:16:14;;;;;;;16.23;11.45;;;9.30;99.00;;;;;;4944970;28;20046;-83
2023/04/24 05:18:42;;;;;;;17.98;11.77;;;9.30;99.00;;;;;;4959664;28;20075;-82
2023/04/24 05:21:15;;;;;;;17.98;11.48;;;9.30;99.00;;;;;;4959733;28;20050;-83
2023/04/24 05:23:46;;;;;;;19.13;11.38;;;9.30;99.00;;;;;;4975181;28;20043;-83
2023/04/24 05:26:19;;;;;;;19.33;12.77;;;9.30;99.00;;;;;;4960089;28;20082;-83
2023/04/24 05:28:46;;;;;;;20.25;12.13;;;9.30;99.10;;;;;;4958926;28;20042;-83
2023/04/24 05:31:17;;;;;;;17.55;11.65;;;9.30;99.10;;;;;;4955684;29;20055;-83
2023/04/24 05:33:44;;;;;;;17.63;12.95;;;9.30;99.10;;;;;;4926788;28;20051;-83
2023/04/24 05:36:13;;;;;;;17.90;11.73;;;9.30;99.10;;;;;;4940282;28;20051;-83
2023/04/24 05:38:41;;;;;;;15.35;10.25;;;9.30;99.10;;;;;;4942886;28;20043;-83
2023/04/24 05:41:08;;;;;;;13.55;9.48;;;9.30;99.10;;;;;;4975249;28;20043;-84
2023/04/24 05:43:35;;;;;;;14.82;9.32;;;9.30;99.10;;;;;;4955669;28;20385;-83
2023/04/24 05:46:02;;;;;;;16.35;9.63;;;9.30;99.10;;;;;;4955670;29;20488;-83
2023/04/24 05:48:30;;;;;;;13.40;9.07;;;9.30;99.10;;;;;;4939722;29;20046;-83
2023/04/24 05:51:00;;;;;;;16.55;10.65;;;9.30;99.10;;;;;;4940176;29;20448;-83
2023/04/24 05:53:27;;;;;;;14.60;9.23;;;9.30;99.10;;;;;;4941186;28;20051;-83
2023/04/24 05:55:55;;;;;;;14.18;8.57;;;9.40;99.20;;;;;;4943117;28;20058;-82
2023/04/24 05:58:22;;;;;;;13.45;7.90;;;9.40;99.20;;;;;;4974417;28;20055;-82
2023/04/24 06:01:28;;;;;;;13.07;7.57;;;9.40;99.20;;;;;;4958360;28;20137;-82
2023/04/24 06:04:05;;;;;;;12.43;7.68;;;9.40;99.10;;;;;;4973078;28;20074;-81
2023/04/24 06:06:33;;;;;;;12.10;7.60;;;9.40;99.10;;;;;;4974489;28;20086;-82
2023/04/24 06:09:00;;;;;;;13.77;7.72;;;9.50;99.10;;;;;;4942545;28;20084;-82
2023/04/24 06:11:28;;;;;;;12.15;7.30;;;9.50;99.10;;;;;;4958393;28;20141;-82
2023/04/24 06:13:55;;;;;;;12.18;7.97;;;9.40;99.10;;;;;;4955213;28;20106;-82
2023/04/24 06:16:43;;;;;;;11.77;7.88;;;9.50;99.20;;;;;;4944510;28;20094;-82
2023/04/24 06:19:24;;;;;;;10.47;6.73;;;9.50;99.20;;;;;;4959024;28;20050;-82
2023/04/24 06:21:51;;;;;;;12.82;7.03;;;9.50;99.20;;;;;;4954575;29;20294;-82
2023/04/24 06:24:18;;;;;;;10.40;7.22;;;9.50;99.20;;;;;;4942138;29;20563;-82
2023/04/24 06:26:48;;;;;;;9.93;6.10;;;9.50;99.20;;;;;;4957094;28;20051;-82
2023/04/24 06:29:15;;;;;;;10.10;6.43;;;9.50;99.20;;;;;;4958773;28;20464;-82
2023/04/24 06:31:42;;;;;;;8.85;5.35;;;9.60;99.20;;;;;;4942116;28;20057;-82
2023/04/24 06:34:09;;;;;;;8.25;5.32;;;9.60;99.20;;;;;;4958200;28;20053;-82
2023/04/24 06:36:37;;;;;;;7.40;4.75;;;9.70;99.10;;;;;;4953988;28;20043;-82
2023/04/24 06:39:04;;;;;;;8.70;5.18;;;9.70;99.10;;;;;;4957905;28;20402;-82
2023/04/24 06:41:31;;;;;;;7.75;4.63;;;9.70;99.10;;;;;;4938613;29;20456;-82
2023/04/24 06:44:00;;;;;;;7.05;4.47;;;9.70;99.00;;;;;;4937347;29;20047;-82
2023/04/24 06:46:27;;;;;;;8.02;5.20;;;9.80;99.10;;;;;;4928034;29;20083;-82
2023/04/24 06:48:58;;;;;;;8.05;4.88;;;9.80;99.00;;;;;;4971066;28;20043;-81
2023/04/24 06:51:25;;;;;;;9.73;5.68;;;9.80;99.00;;;;;;4973344;28;20043;-81
2023/04/24 06:53:57;;;;;;;9.32;5.47;;;9.80;99.00;;;;;;4957668;28;20463;-81
2023/04/24 06:56:25;;;;;;;8.57;5.63;;;9.80;99.00;;;;;;4957317;28;20495;-81
2023/04/24 06:58:53;;;;;;;7.47;4.78;;;9.80;99.10;;;;;;4957387;28;20047;-81
2023/04/24 07:01:20;;;;;;;6.85;3.45;;;9.80;99.10;;;;;;4954030;28;20519;-81
2023/04/24 07:03:47;;;;;;;7.28;4.03;;;9.80;99.10;;;;;;4967562;28;20055;-80
2023/04/24 07:06:16;;;;;;;5.45;3.22;;;9.90;99.10;;;;;;4954197;28;20427;-80
2023/04/24 07:08:46;;;;;;;5.32;2.95;;;9.90;99.10;;;;;;4922553;29;20142;-80
2023/04/24 07:11:13;;;;;;;5.07;2.75;;;9.90;99.10;;;;;;4956518;28;20078;-80
2023/04/24 07:13:41;;;;;;;5.22;2.70;;;9.90;99.10;;;;;;4956867;28;20143;-80
2023/04/24 07:16:09;;;;;;;4.63;2.20;;;9.80;99.10;;;;;;4938124;28;20031;-80
2023/04/24 07:18:37;;;;;;;4.75;1.90;;;9.80;99.10;;;;;;4961524;28;20482;-80
2023/04/24 07:21:04;;;;;;;2.97;1.60;;;9.80;99.20;;;;;;4967927;28;20058;-80
2023/04/24 07:23:31;;;;;;;3.75;1.77;;;9.80;99.20;;;;;;4956527;28;20113;-80
2023/04/24 07:25:58;;;;;;;4.93;1.60;;;9.70;99.20;;;;;;4957069;28;20130;-80
2023/04/24 07:28:25;;;;;;;3.97;1.40;;;9.70;99.30;;;;;;4941004;28;20046;-84
2023/04/24 07:30:55;;;;;;;3.47;1.02;;;9.70;99.30;;;;;;4942214;28;20047;-82
2023/04/24 07:33:22;;;;;;;3.05;1.40;;;9.70;99.30;;;;;;4957042;28;20054;-80
2023/04/24 07:35:49;;;;;;;2.00;1.02;;;9.70;99.30;;;;;;4973150;28;20035;-83
2023/04/24 07:38:16;;;;;;;2.50;1.10;;;9.60;99.30;;;;;;4937776;28;20051;-82
2023/04/24 07:40:43;;;;;;;2.75;0.98;;;9.60;99.40;;;;;;4957038;28;20062;-82
2023/04/24 07:43:16;;;;;;;3.00;1.15;;;9.50;99.50;;;;;;4941411;28;20511;-82
2023/04/24 07:45:43;;;;;;;3.20;1.13;;;9.50;99.50;;;;;;4956284;28;20050;-81
2023/04/24 07:48:10;;;;;;;2.78;1.40;;;9.40;99.60;;;;;;4973125;28;20117;-82
2023/04/24 07:50:37;;;;;;;5.00;1.38;;;9.40;99.60;;;;;;4972872;28;20047;-82
2023/04/24 07:53:04;;;;;;;4.55;2.25;;;9.30;99.60;;;;;;4953527;29;20051;-81
2023/04/24 07:55:31;;;;;;;3.97;2.35;;;9.30;99.70;;;;;;4961886;28;20514;-82
2023/04/24 07:58:01;;;;;;;3.85;2.22;;;9.30;99.70;;;;;;4957294;28;20150;-83
2023/04/24 08:00:28;;;;;;;4.90;3.08;;;9.30;99.80;;;;;;4972961;28;20376;-82
2023/04/24 08:02:56;;;;;;;5.57;2.90;;;9.20;99.70;;;;;;4972806;28;20110;-83
2023/04/24 08:05:25;;;;;;;7.40;4.03;;;9.20;99.80;;;;;;4940993;28;20054;-82
2023/04/24 08:07:52;;;;;;;5.57;3.58;;;9.20;99.80;;;;;;4941266;28;20094;-83
2023/04/24 08:10:21;;;;;;;5.85;3.33;;;9.20;99.80;;;;;;4956466;28;20381;-83
2023/04/24 08:12:51;;;;;;;7.07;4.70;;;9.10;99.80;;;;;;4925339;28;20518;-82
2023/04/24 08:15:18;;;;;;;7.25;4.28;;;9.00;99.80;;;;;;4956512;28;20102;-82
2023/04/24 08:17:45;;;;;;;8.30;4.90;;;9.00;99.80;;;;;;4940785;28;20058;-82
2023/04/24 08:20:15;;;;;;;9.50;4.82;;;9.10;99.90;;;;;;4940776;28;20049;-80
2023/04/24 08:22:43;;;;;;;7.68;5.35;;;9.10;99.90;;;;;;4956678;28;20134;-83
2023/04/24 08:25:10;;;;;;;9.23;4.95;;;9.00;99.70;;;;;;4956419;28;20050;-82
2023/04/24 08:27:38;;;;;;;7.80;5.05;;;9.00;99.80;;;;;;4958879;28;20495;-82
2023/04/24 08:30:06;;;;;;;8.55;5.53;;;8.90;99.80;;;;;;4957088;29;20546;-82
2023/04/24 08:32:33;;;;;;;11.30;5.55;;;8.90;99.80;;;;;;4949278;28;20062;-82
2023/04/24 08:35:00;;;;;;;11.75;6.50;;;8.90;99.80;;;;;;4957610;28;20051;-83
2023/04/24 08:37:30;;;;;;;10.95;6.45;;;8.80;99.80;;;;;;4976196;28;20039;-84
2023/04/24 08:39:57;;;;;;;11.85;6.22;;;8.80;99.90;;;;;;4960277;28;20487;-82
2023/04/24 08:42:26;;;;;;;13.35;6.57;;;8.80;99.90;;;;;;4956685;28;20035;-83
2023/04/24 08:44:53;;;;;;;11.15;5.85;;;8.80;99.90;;;;;;4949585;28;20039;-82
2023/04/24 08:47:22;;;;;;;12.95;6.05;;;8.80;99.90;;;;;;4974764;28;20098;-82
2023/04/24 08:49:50;;;;;;;9.45;5.65;;;8.80;99.90;;;;;;4944119;28;20050;-82
2023/04/24 08:52:19;;;;;;;11.52;5.38;;;8.90;99.90;;;;;;4944295;28;20051;-83
2023/04/24 08:54:46;;;;;;;9.98;5.53;;;8.90;99.90;;;;;;4959715;28;20146;-83
2023/04/24 08:57:18;;;;;;;13.02;8.15;;;8.90;99.80;;;;;;4975424;28;20047;-82
2023/04/24 08:59:46;;;;;;;11.15;6.35;;;8.90;99.90;;;;;;4959691;28;20053;-83
2023/04/24 09:02:17;;;;;;;10.55;6.63;;;8.80;99.90;;;;;;4959673;28;20125;-83
2023/04/24 09:04:45;;;;;;;15.00;6.95;;;8.90;99.90;;;;;;4959508;28;20126;-82
2023/04/24 09:07:16;;;;;;;12.00;5.68;;;8.90;99.90;;;;;;4975251;28;20101;-82
2023/04/24 09:09:44;;;;;;;10.40;5.78;;;8.90;99.90;;;;;;4960127;28;20056;-82
2023/04/24 09:12:12;;;;;;;7.15;4.82;;;8.90;99.90;;;;;;4959569;28;20105;-82
2023/04/24 09:14:42;;;;;;;10.27;4.63;;;8.90;99.90;;;;;;4957493;28;20055;-82
2023/04/24 09:17:09;;;;;;;6.75;3.65;;;8.90;99.90;;;;;;4959411;28;20070;-82
2023/04/24 09:19:36;;;;;;;9.38;3.50;;;9.00;99.90;;;;;;4959176;28;20046;-82
2023/04/24 09:22:07;;;;;;;8.30;3.80;;;9.00;99.90;;;;;;4959202;28;20154;-82
2023/04/24 09:24:35;;;;;;;11.57;3.65;;;9.00;99.80;;;;;;4956055;29;20043;-80
2023/04/24 09:27:02;;;;;;;7.57;3.30;;;9.00;99.80;;;;;;4974467;28;20118;-81
2023/04/24 09:29:29;;;;;;;6.78;3.83;;;9.00;99.90;;;;;;4975362;28;20038;-82
2023/04/24 09:31:56;;;;;;;6.72;2.60;;;9.10;99.90;;;;;;4940390;29;20039;-81
2023/04/24 09:34:26;;;;;;;7.78;3.28;;;9.10;99.70;;;;;;4953315;28;20590;-81
2023/04/24 09:36:54;;;;;;;9.73;3.58;;;9.10;99.70;;;;;;4975013;28;20126;-80
2023/04/24 09:39:21;;;;;;;11.32;3.42;;;9.10;99.70;;;;;;4942349;28;20050;-80
2023/04/24 09:41:56;;;;;;;8.98;3.10;;;9.10;99.50;;;;;;4958063;28;20034;-79
2023/04/24 09:44:28;;;;;;;10.25;2.55;;;9.00;99.40;;;;;;4959781;28;20093;-80
2023/04/24 09:47:00;;;;;;;8.13;2.08;;;9.00;99.50;;;;;;4958673;28;20394;-81
2023/04/24 09:49:29;;;;;;;6.10;2.08;;;9.10;99.50;;;;;;4974563;28;20035;-80
2023/04/24 09:52:08;;;;;;;5.10;1.85;;;9.20;99.50;;;;;;4958626;28;20046;-79
2023/04/24 09:54:39;;;;;;;7.75;2.35;;;9.30;99.30;;;;;;4957920;28;20050;-80
2023/04/24 09:57:09;;;;;;;6.32;1.95;;;9.30;99.30;;;;;;4974190;28;20054;-80
2023/04/24 09:59:43;;;;;;;8.88;2.10;;;9.40;99.10;;;;;;4958584;28;20119;-80
2023/04/24 10:02:21;;;;;;;8.93;2.70;;;9.50;98.80;;;;;;4943457;28;20042;-87
2023/04/24 10:04:59;;;;;;;6.63;2.28;;;9.60;98.70;;;;;;4958868;28;20046;-80
2023/04/24 10:07:27;;;;;;;6.80;2.25;;;9.60;98.50;;;;;;4957389;28;20047;-80
2023/04/24 10:09:58;;;;;;;11.73;2.20;;;9.70;98.60;;;;;;4952047;28;20090;-82
2023/04/24 10:12:26;;;;;;;4.07;1.40;;;9.90;98.50;;;;;;4966176;28;20047;-82
2023/04/24 10:14:54;;;;;;;5.38;1.60;;;10.10;98.30;;;;;;4968503;28;20070;-80
2023/04/24 10:17:25;;;;;;;6.90;1.90;;;10.20;98.00;;;;;;4924302;29;20051;-90
2023/04/24 10:19:52;;;;;;;7.43;1.88;;;10.40;97.70;;;;;;4963152;28;20070;-82
2023/04/24 10:22:21;;;;;;;6.03;2.08;;;10.50;97.50;;;;;;4955355;28;20043;-82
2023/04/24 10:24:49;;;;;;;8.57;2.45;;;10.70;97.10;;;;;;4969124;28;20384;-82
2023/04/24 10:27:17;;;;;;;5.80;2.20;;;10.80;96.70;;;;;;4961781;28;20035;-83
2023/04/24 10:29:47;;;;;;;7.43;2.47;;;11.00;96.20;;;;;;4954856;29;20503;-83
2023/04/24 10:32:14;;;;;;;5.78;1.83;;;11.40;95.70;;;;;;4960551;28;20043;-83
2023/04/24 10:34:41;;;;;;;6.47;1.75;;;11.80;95.30;;;;;;4947784;28;20451;-81
2023/04/24 10:37:08;;;;;;;5.28;2.15;;;12.10;94.50;;;;;;4953406;28;20506;-81
2023/04/24 10:39:37;;;;;;;6.90;2.08;;;12.00;94.50;;;;;;4950146;28;20426;-82
2023/04/24 10:42:15;;;;;;;6.97;1.70;;;11.90;94.20;;;;;;4956388;28;20209;-83
2023/04/24 10:44:42;;;;;;;5.53;1.65;;;11.70;93.70;;;;;;4965164;28;20046;-83
2023/04/24 10:47:16;;;;;;;5.68;1.90;;;11.60;93.60;;;;;;4941621;28;20051;-83
2023/04/24 10:49:44;;;;;;;4.60;1.65;;;11.50;93.70;;;;;;4957452;28;20078;-83
2023/04/24 10:52:11;;;;;;;4.15;1.55;;;11.40;93.00;;;;;;4941912;28;20058;-82
2023/04/24 10:54:44;;;;;;;5.03;1.63;;;11.20;92.60;;;;;;4973410;28;20043;-81
2023/04/24 10:57:21;;;;;;;2.45;0.90;;;11.00;92.60;;;;;;4973687;28;20057;-81
2023/04/24 11:00:16;;;;;;;7.18;1.67;;;10.90;93.40;;;;;;4965251;28;20039;-82
2023/04/24 11:02:48;;;;;;;4.10;1.20;;;10.90;92.70;;;;;;4956421;28;20043;-82
2023/04/24 11:05:17;;;;;;;4.72;1.00;;;10.90;92.60;;;;;;4948952;28;20133;-84
2023/04/24 11:08:11;;;;;;;6.30;1.70;;;11.00;92.70;;;;;;4955859;28;20051;-84
2023/04/24 11:10:40;;;;;;;4.40;1.40;;;11.00;92.10;;;;;;4973152;28;20054;-83
2023/04/24 11:13:07;;;;;;;7.80;1.13;;;10.90;92.40;;;;;;4974446;28;20078;-84
2023/04/24 11:15:36;;;;;;;3.97;1.77;;;10.80;92.20;;;;;;4957596;28;20533;-83
2023/04/24 11:18:03;;;;;;;3.50;1.08;;;10.60;92.20;;;;;;4955373;28;20089;-83
2023/04/24 11:20:31;;;;;;;5.88;1.08;;;10.50;92.30;;;;;;4941697;28;20057;-84
2023/04/24 11:23:03;;;;;;;5.63;1.92;;;10.40;92.70;;;;;;4941436;28;20410;-83
2023/04/24 11:25:32;;;;;;;2.58;0.80;;;10.50;92.10;;;;;;4944380;28;20106;-84
2023/04/24 11:28:06;;;;;;;4.10;0.82;;;10.60;92.40;;;;;;4973200;28;20070;-80
2023/04/24 11:30:33;;;;;;;2.30;0.70;;;10.80;92.10;;;;;;4960364;28;20058;-81
2023/04/24 11:33:05;;;;;;;4.68;0.60;;;10.90;91.90;;;;;;4970745;28;20407;-80
2023/04/24 11:35:39;;;;;;;3.70;0.70;;;11.00;91.80;;;;;;4969331;28;20061;-81
2023/04/24 11:38:07;;;;;;;2.08;0.40;;;11.00;91.30;;;;;;4973101;28;20308;-82
2023/04/24 11:40:37;;;;;;;3.67;0.60;;;10.90;90.90;;;;;;4953637;29;20036;-80
2023/04/24 11:43:06;;;;;;;1.02;0.40;;;10.90;90.90;;;;;;4956794;28;20483;-80
2023/04/24 11:45:34;;;;;;;1.88;0.65;;;11.00;91.00;;;;;;4956825;28;20187;-80
2023/04/24 11:48:03;;;;;;;4.25;0.55;;;11.20;91.00;;;;;;4972754;28;20046;-83
2023/04/24 11:50:33;;;;;;;1.20;0.38;;;11.30;90.60;;;;;;4956567;28;20106;-81
2023/04/24 11:53:00;;;;;;;4.15;0.50;;;11.30;90.60;;;;;;4958961;28;20075;-80
2023/04/24 11:55:29;;;;;;;2.20;0.65;;;11.40;90.20;;;;;;4938477;28;20063;-81
2023/04/24 11:57:58;;;;;;;1.02;0.40;;;11.40;90.20;;;;;;4956582;28;20090;-82
2023/04/24 12:00:27;;;;;;;3.28;0.50;;;11.30;90.30;;;;;;4976322;28;20470;-81
2023/04/24 12:03:09;;;;;;;2.35;0.40;;;11.10;90.00;;;;;;4959893;28;20050;-80
2023/04/24 12:05:37;;;;;;;1.52;0.40;;;10.90;90.10;;;;;;4958330;28;20133;-80
2023/04/24 12:08:04;;;;;;;1.88;0.30;;;10.70;89.70;;;;;;4960577;28;20054;-81
2023/04/24 12:10:33;;;;;;;4.68;0.50;;;10.40;90.20;;;;;;4945869;28;20851;-80
2023/04/24 12:13:00;;;;;;;2.20;0.47;;;10.10;90.90;;;;;;4976594;28;20137;-82
2023/04/24 12:15:28;;;;;;;3.28;0.40;;;9.90;91.50;;;;;;4960522;28;20047;-80
2023/04/24 12:17:56;;;;;;;1.65;0.22;;;9.80;92.10;;;;;;4976421;28;20118;-81
2023/04/24 12:20:32;;;;;;;2.65;0.40;;;9.70;92.50;;;;;;4954674;28;20106;-81
2023/04/24 12:23:00;;;;;;;1.10;0.30;;;9.90;92.70;;;;;;4938999;28;20487;-80
2023/04/24 12:25:38;;;;;;;1.35;0.38;;;10.10;92.60;;;;;;4947495;28;20115;-81
2023/04/24 12:28:05;;;;;;;3.08;0.50;;;10.30;92.60;;;;;;4960035;28;20086;-80
2023/04/24 12:30:38;;;;;;;2.90;0.60;;;10.40;92.50;;;;;;4976199;28;20126;-79
2023/04/24 12:33:05;;;;;;;1.38;0.55;;;10.40;92.60;;;;;;4959783;28;20454;-83
2023/04/24 12:35:33;;;;;;;1.35;0.40;;;10.50;92.60;;;;;;4957036;28;20142;-85
2023/04/24 12:38:12;;;;;;;2.80;0.40;;;10.80;92.50;;;;;;4958244;28;20047;-83
2023/04/24 12:40:43;;;;;;;1.88;0.45;;;11.00;92.30;;;;;;4956130;29;20500;-83
2023/04/24 12:43:18;;;;;;;1.90;0.30;;;11.30;91.80;;;;;;4956848;29;20098;-83
2023/04/24 12:45:45;;;;;;;1.42;0.38;;;11.50;91.60;;;;;;4962365;28;20054;-82
2023/04/24 12:48:15;;;;;;;2.58;0.30;;;11.50;91.20;;;;;;4960257;28;20054;-83
2023/04/24 12:50:43;;;;;;;1.88;0.32;;;11.60;91.20;;;;;;4960901;28;20422;-84
2023/04/24 12:53:15;;;;;;;3.40;0.52;;;11.60;90.70;;;;;;4967407;28;20057;-84
2023/04/24 12:55:44;;;;;;;2.50;0.40;;;11.50;90.70;;;;;;4975886;28;20050;-80
2023/04/24 12:58:11;;;;;;;1.33;0.45;;;11.40;90.40;;;;;;4960044;28;20042;-84
2023/04/24 13:00:38;;;;;;;1.27;0.35;;;11.40;90.40;;;;;;4977515;28;20074;-85